Time;durP1;ratioP1;P1;durP2;ratioP2;P2;SDS_P1;SDS_P2;PMS_P1;PMS_P2;Temp;Humidity;BMP_temperature;BMP_pressure;BME280_temperature;BME280_humidity;BME280_pressure;Samples;Min_cycle;Max_cycle;Signal;HPM_P1;HPM_P2
2022/11/15 00:01:19;;;;;;;3.47;2.45;;;;;;;16.29;46.55;93347.22;5075725;27;20398;-86
2022/11/15 00:03:46;;;;;;;3.92;2.50;;;;;;;16.27;46.68;93345.00;5078013;28;20102;-86
2022/11/15 00:06:11;;;;;;;5.15;2.75;;;;;;;16.24;46.41;93345.97;5074182;28;20330;-85
2022/11/15 00:08:37;;;;;;;5.22;2.60;;;;;;;16.27;46.76;93338.78;5074633;28;20032;-85
2022/11/15 00:11:02;;;;;;;4.35;3.15;;;;;;;16.25;46.94;93344.00;5091420;28;20032;-86
2022/11/15 00:13:28;;;;;;;4.40;2.80;;;;;;;16.25;46.76;93338.53;5092481;28;20031;-85
2022/11/15 00:15:56;;;;;;;4.32;2.83;;;;;;;16.24;46.86;93329.63;5089536;28;20496;-86
2022/11/15 00:18:21;;;;;;;4.70;3.00;;;;;;;16.22;46.67;93331.38;5078668;28;20656;-87
2022/11/15 00:20:47;;;;;;;3.25;2.25;;;;;;;16.23;46.67;93325.44;5074677;28;20032;-86
2022/11/15 00:23:12;;;;;;;4.10;2.60;;;;;;;16.26;46.62;93334.56;5058152;28;20043;-85
2022/11/15 00:25:38;;;;;;;3.20;2.30;;;;;;;16.25;46.70;93333.09;5089062;28;20040;-86
2022/11/15 00:28:03;;;;;;;2.70;2.40;;;;;;;16.24;46.53;93339.81;5072073;28;20551;-85
2022/11/15 00:30:28;;;;;;;4.43;2.72;;;;;;;16.22;46.81;93334.09;5068083;28;20036;-86
2022/11/15 00:32:54;;;;;;;4.93;2.50;;;;;;;16.24;46.77;93334.34;5075742;28;20062;-85
2022/11/15 00:35:20;;;;;;;4.18;2.45;;;;;;;16.24;46.92;93331.63;5091185;28;20031;-85
2022/11/15 00:37:47;;;;;;;2.83;2.38;;;;;;;16.21;46.62;93325.19;5075466;28;20498;-86
2022/11/15 00:40:12;;;;;;;4.93;2.50;;;;;;;16.21;46.59;93321.72;5065944;27;20082;-85
2022/11/15 00:42:38;;;;;;;2.80;2.30;;;;;;;16.26;46.57;93320.94;5091983;28;20044;-85
2022/11/15 00:45:04;;;;;;;3.45;2.25;;;;;;;16.24;46.75;93323.44;5091630;28;20042;-85
2022/11/15 00:47:29;;;;;;;3.30;2.38;;;;;;;16.22;46.64;93315.75;5088135;28;20047;-86
2022/11/15 00:49:54;;;;;;;3.67;2.38;;;;;;;16.22;46.73;93315.03;5056452;28;20040;-85
2022/11/15 00:52:20;;;;;;;3.45;1.95;;;;;;;16.21;46.45;93313.53;5087854;28;20433;-85
2022/11/15 00:54:45;;;;;;;3.10;2.15;;;;;;;16.22;46.93;93315.75;5088186;28;20036;-86
2022/11/15 00:57:10;;;;;;;3.08;2.10;;;;;;;16.21;46.62;93310.81;5088544;28;20098;-86
2022/11/15 00:59:37;;;;;;;3.50;2.10;;;;;;;16.21;46.66;93302.63;5091202;28;20035;-86
2022/11/15 01:02:02;;;;;;;2.97;2.15;;;;;;;16.22;46.96;93304.09;5091569;28;20129;-86
2022/11/15 01:04:29;;;;;;;4.00;2.25;;;;;;;16.21;46.66;93302.63;5091506;28;20043;-86
2022/11/15 01:06:54;;;;;;;2.65;2.20;;;;;;;16.21;46.90;93294.44;5090543;28;20786;-86
2022/11/15 01:09:19;;;;;;;3.63;2.30;;;;;;;16.22;46.69;93290.47;5091648;28;20046;-85
2022/11/15 01:11:45;;;;;;;2.80;2.20;;;;;;;16.21;46.80;93292.47;5073837;28;20050;-85
2022/11/15 01:14:10;;;;;;;2.92;2.03;;;;;;;16.21;46.84;93297.16;5075006;28;20436;-85
2022/11/15 01:16:36;;;;;;;2.95;2.10;;;;;;;16.20;46.90;93299.16;5074574;28;20505;-85
2022/11/15 01:19:01;;;;;;;2.83;1.88;;;;;;;16.19;46.57;93294.94;5088448;28;20020;-85
2022/11/15 01:21:27;;;;;;;2.50;1.95;;;;;;;16.20;46.79;93298.41;5083021;28;20031;-85
2022/11/15 01:23:54;;;;;;;2.60;2.00;;;;;;;16.22;46.93;93290.47;5082423;28;20035;-85
2022/11/15 01:26:19;;;;;;;2.42;1.75;;;;;;;16.22;46.68;93285.75;5070687;28;20035;-86
2022/11/15 01:28:44;;;;;;;2.85;2.05;;;;;;;16.21;47.03;93284.28;5070978;28;20430;-86
2022/11/15 01:31:15;;;;;;;2.97;2.13;;;;;;;16.21;46.80;93297.16;5087632;28;20055;-85
2022/11/15 01:33:40;;;;;;;2.78;2.05;;;;;;;16.21;47.03;93294.44;5088232;28;20032;-86
2022/11/15 01:36:10;;;;;;;3.50;1.90;;;;;;;16.21;46.99;93303.38;5080588;28;20050;-85
2022/11/15 01:38:35;;;;;;;3.67;2.00;;;;;;;16.21;46.75;93289.00;5074933;28;20034;-85
2022/11/15 01:41:01;;;;;;;3.10;2.00;;;;;;;16.21;46.87;93294.44;5070634;28;20044;-86
2022/11/15 01:43:30;;;;;;;2.42;1.65;;;;;;;16.23;46.71;93284.53;5070239;28;20029;-86
2022/11/15 01:45:58;;;;;;;2.45;1.63;;;;;;;16.20;46.73;93285.50;5071392;28;20032;-86
2022/11/15 01:48:26;;;;;;;3.42;1.80;;;;;;;16.22;46.95;93288.50;5078700;28;20040;-85
2022/11/15 01:50:51;;;;;;;2.35;1.92;;;;;;;16.22;46.74;93287.75;5089029;28;20039;-85
2022/11/15 01:53:17;;;;;;;2.58;1.90;;;;;;;16.20;46.50;93284.78;5090473;28;20039;-86
2022/11/15 01:55:42;;;;;;;2.90;1.75;;;;;;;16.18;46.36;93279.81;5073866;28;20039;-85
2022/11/15 01:58:07;;;;;;;3.00;1.85;;;;;;;16.18;46.55;93277.09;5073484;28;20047;-86
2022/11/15 02:00:33;;;;;;;2.45;1.83;;;;;;;16.20;46.88;93274.59;5090894;28;20036;-85
2022/11/15 02:02:58;;;;;;;2.15;1.40;;;;;;;16.20;46.79;93269.16;5070723;28;20043;-85
2022/11/15 02:05:24;;;;;;;2.88;1.98;;;;;;;16.22;46.55;93269.41;5053166;28;20036;-86
2022/11/15 02:07:49;;;;;;;2.58;1.63;;;;;;;16.19;47.03;93256.00;5084929;28;20035;-85
2022/11/15 02:10:19;;;;;;;1.80;1.38;;;;;;;16.20;46.70;93257.50;5090271;28;20047;-86
2022/11/15 02:12:45;;;;;;;2.33;1.70;;;;;;;16.19;46.63;93250.56;5072657;28;20470;-86
2022/11/15 02:15:10;;;;;;;2.80;1.75;;;;;;;16.18;46.79;93252.53;5078514;28;20379;-86
2022/11/15 02:17:55;;;;;;;2.55;1.60;;;;;;;16.19;46.97;93245.84;5070065;28;20039;-85
2022/11/15 02:20:43;;;;;;;2.95;1.77;;;;;;;16.18;46.79;93243.63;5090468;28;20451;-86
2022/11/15 02:23:46;;;;;;;3.88;1.67;;;;;;;16.17;47.03;93250.31;5075154;28;20119;-85
2022/11/15 02:26:48;;;;;;;2.50;1.90;;;;;;;16.17;46.90;93242.88;5087548;28;20566;-86
2022/11/15 02:29:18;;;;;;;2.83;1.80;;;;;;;16.17;46.90;93242.13;5069347;28;20490;-85
2022/11/15 02:32:01;;;;;;;3.55;1.80;;;;;;;16.16;46.65;93227.00;5071408;28;20036;-86
2022/11/15 02:34:31;;;;;;;2.10;1.60;;;;;;;16.15;47.16;93237.19;5105821;28;20035;-85
2022/11/15 02:37:21;;;;;;;3.03;1.90;;;;;;;16.18;46.76;93229.97;5106825;28;20044;-85
2022/11/15 02:39:59;;;;;;;2.13;1.63;;;;;;;16.17;46.79;93225.78;5073967;28;20044;-85
2022/11/15 02:45:13;;;;;;;2.67;1.60;;;;;;;16.15;47.01;93225.53;5092258;28;20436;-85
2022/11/15 02:47:42;;;;;;;2.47;1.40;;;;;;;16.18;46.84;93224.53;5090029;28;20034;-85
2022/11/15 02:50:09;;;;;;;2.55;1.63;;;;;;;16.15;46.69;93226.28;5072837;28;20050;-86
2022/11/15 02:52:35;;;;;;;2.13;1.60;;;;;;;16.15;47.13;93220.06;5087203;28;20486;-86
2022/11/15 02:55:01;;;;;;;3.58;1.65;;;;;;;16.15;47.11;93226.28;5069345;28;20040;-86
2022/11/15 02:57:45;;;;;;;2.30;1.60;;;;;;;16.15;46.71;93231.72;5052433;28;20782;-85
2022/11/15 03:00:11;;;;;;;1.92;1.42;;;;;;;16.16;46.83;93225.03;5069441;28;20070;-86
2022/11/15 03:02:52;;;;;;;1.75;1.38;;;;;;;16.16;46.76;93233.22;5087909;28;20036;-85
2022/11/15 03:05:42;;;;;;;2.58;1.60;;;;;;;16.13;47.07;93233.47;5085837;28;20043;-85
2022/11/15 03:08:32;;;;;;;2.35;1.60;;;;;;;16.15;46.84;93225.53;5086586;28;20054;-86
2022/11/15 03:11:13;;;;;;;2.17;1.58;;;;;;;16.14;46.64;93224.78;5085833;28;20051;-86
2022/11/15 03:13:40;;;;;;;1.85;1.50;;;;;;;16.14;46.96;93222.06;5069222;28;20252;-86
2022/11/15 03:16:16;;;;;;;2.95;2.10;;;;;;;16.17;46.80;93228.50;5103253;28;20066;-86
2022/11/15 03:18:43;;;;;;;2.05;1.50;;;;;;;16.13;46.85;93220.56;5100650;28;20557;-86
2022/11/15 03:21:09;;;;;;;1.50;1.30;;;;;;;16.15;46.72;93218.09;5089753;28;20053;-85
2022/11/15 03:23:35;;;;;;;2.13;1.42;;;;;;;16.17;46.84;93215.59;5072618;28;20024;-86
2022/11/15 03:26:01;;;;;;;2.65;1.48;;;;;;;16.15;47.00;93212.63;5089776;28;20051;-86
2022/11/15 03:28:34;;;;;;;2.58;1.40;;;;;;;16.16;46.58;93205.19;5089109;28;20486;-85
2022/11/15 03:30:59;;;;;;;2.67;1.70;;;;;;;16.15;46.80;93207.19;5081376;28;20456;-86
2022/11/15 03:33:25;;;;;;;2.05;1.58;;;;;;;16.13;46.83;93212.38;5056363;28;20043;-85
2022/11/15 03:35:50;;;;;;;1.38;1.10;;;;;;;16.13;46.74;93206.94;5076218;28;20035;-86
2022/11/15 03:38:25;;;;;;;1.88;1.30;;;;;;;16.14;46.96;93199.50;5055848;28;20116;-85
2022/11/15 03:41:05;;;;;;;2.20;1.38;;;;;;;16.13;46.68;93198.75;5072924;28;20131;-86
2022/11/15 03:43:33;;;;;;;2.63;1.73;;;;;;;16.16;46.64;93195.03;5073375;28;20528;-86
2022/11/15 03:46:02;;;;;;;1.70;1.40;;;;;;;16.14;46.45;93189.31;5038939;28;20043;-86
2022/11/15 03:48:30;;;;;;;1.98;1.35;;;;;;;16.15;46.75;93190.81;5089377;28;20040;-85
2022/11/15 03:50:56;;;;;;;1.60;1.30;;;;;;;16.13;46.70;93187.84;5056571;28;20429;-85
2022/11/15 03:53:21;;;;;;;2.13;1.45;;;;;;;16.14;46.77;93186.59;5072925;28;20036;-86
2022/11/15 03:55:46;;;;;;;1.77;1.20;;;;;;;16.13;46.66;93185.13;5071816;28;20028;-86
2022/11/15 03:58:13;;;;;;;2.08;1.40;;;;;;;16.10;46.92;93183.38;5072299;28;20043;-86
2022/11/15 04:00:38;;;;;;;2.05;1.42;;;;;;;16.11;46.34;93177.44;5079739;28;20031;-86
2022/11/15 04:03:03;;;;;;;2.08;1.50;;;;;;;16.10;46.97;93170.50;5109914;28;20043;-85
2022/11/15 04:05:29;;;;;;;2.58;1.33;;;;;;;16.10;47.04;93178.69;5072457;28;20406;-85
2022/11/15 04:07:54;;;;;;;1.48;1.20;;;;;;;16.09;46.68;93169.00;5055722;28;20044;-86
2022/11/15 04:10:20;;;;;;;1.95;1.17;;;;;;;16.12;46.92;93172.72;5071919;28;20040;-86
2022/11/15 04:12:47;;;;;;;1.75;1.35;;;;;;;16.10;46.53;93173.22;5055037;28;20028;-86
2022/11/15 04:15:14;;;;;;;2.28;1.25;;;;;;;16.15;46.79;93168.25;5097191;28;20043;-86
2022/11/15 04:17:40;;;;;;;1.23;1.05;;;;;;;16.12;46.44;93164.53;5092652;28;20516;-85
2022/11/15 04:25:42;;;;;;;1.38;1.10;;;;;;;16.10;46.74;93156.13;5083261;28;20043;-86
2022/11/15 04:28:07;;;;;;;1.50;1.33;;;;;;;16.09;46.72;93160.84;5088903;28;20040;-85
2022/11/15 04:30:32;;;;;;;2.00;1.50;;;;;;;16.09;46.81;93155.38;5089419;28;20050;-86
2022/11/15 04:32:58;;;;;;;1.63;1.23;;;;;;;16.10;46.61;93140.50;5089147;28;20072;-85
2022/11/15 04:35:23;;;;;;;1.83;1.27;;;;;;;16.10;46.60;93145.97;5088220;28;20036;-85
2022/11/15 04:37:49;;;;;;;2.67;1.25;;;;;;;16.11;46.78;93147.44;5077517;28;20078;-86
2022/11/15 04:40:14;;;;;;;1.52;1.20;;;;;;;16.11;46.79;93138.53;5087431;28;20059;-86
2022/11/15 04:42:42;;;;;;;2.70;1.20;;;;;;;16.14;46.73;93134.06;5055098;28;20097;-86
2022/11/15 04:45:09;;;;;;;3.10;1.60;;;;;;;16.16;46.79;93139.75;5071684;28;20382;-86
2022/11/15 04:47:34;;;;;;;2.35;1.38;;;;;;;16.15;46.77;93143.72;5055520;28;20044;-84
2022/11/15 04:50:02;;;;;;;1.45;1.25;;;;;;;16.11;46.91;93138.53;5105803;28;20032;-86
2022/11/15 04:52:27;;;;;;;3.58;1.73;;;;;;;16.17;46.75;93139.25;5088722;28;20806;-85
2022/11/15 04:54:52;;;;;;;1.95;1.30;;;;;;;16.17;46.64;93141.22;5072000;28;20031;-86
2022/11/15 04:57:18;;;;;;;3.33;1.58;;;;;;;16.18;46.65;93140.00;5055227;28;20040;-83
2022/11/15 04:59:43;;;;;;;1.45;1.10;;;;;;;16.20;46.81;93142.97;5072367;28;20032;-85
2022/11/15 05:02:09;;;;;;;1.20;0.90;;;;;;;16.22;46.72;93143.19;5080877;28;20500;-85
2022/11/15 05:04:34;;;;;;;2.38;1.40;;;;;;;16.16;46.57;93140.50;5100042;28;20087;-87
2022/11/15 05:07:00;;;;;;;4.05;1.50;;;;;;;16.16;46.39;93142.47;5086216;28;20398;-84
2022/11/15 05:09:25;;;;;;;3.08;1.95;;;;;;;16.17;46.70;93141.97;5085584;28;20078;-82
2022/11/15 05:11:50;;;;;;;2.17;1.30;;;;;;;16.17;47.09;93138.50;5086436;28;20036;-86
2022/11/15 05:14:16;;;;;;;2.08;1.35;;;;;;;16.16;47.07;93134.28;5103283;28;20501;-87
2022/11/15 05:16:42;;;;;;;2.38;1.50;;;;;;;16.15;46.46;93133.56;5080737;28;20135;-86
2022/11/15 05:19:07;;;;;;;5.85;1.58;;;;;;;16.16;47.12;93135.03;5085525;28;20040;-86
2022/11/15 05:21:32;;;;;;;1.83;1.30;;;;;;;16.16;46.64;93128.84;5108048;28;20031;-87
2022/11/15 05:23:58;;;;;;;4.05;1.60;;;;;;;16.15;46.91;93125.38;5074247;27;20445;-84
2022/11/15 05:26:23;;;;;;;78.70;47.90;;;;;;;16.17;47.09;93120.16;5080414;28;20110;-87
2022/11/15 05:28:57;;;;;;;43.85;37.35;;;;;;;16.16;47.43;93115.94;5071436;28;20111;-89
2022/11/15 05:31:23;;;;;;;13.40;7.45;;;;;;;16.17;46.58;93114.69;5088289;28;20100;-87
2022/11/15 05:33:49;;;;;;;13.88;7.93;;;;;;;16.19;46.71;93112.22;5084373;28;20040;-86
2022/11/15 05:36:36;;;;;;;61.17;37.33;;;;;;;16.24;47.45;93111.44;5064779;28;20044;-85
2022/11/15 05:39:02;;;;;;;26.60;11.95;;;;;;;16.27;46.92;93112.41;5077536;28;20032;-86
2022/11/15 05:41:32;;;;;;;25.48;9.55;;;;;;;16.28;47.08;93109.19;5072515;28;20051;-89
2022/11/15 05:43:57;;;;;;;24.85;8.10;;;;;;;16.31;46.77;93113.63;5086129;28;20044;-88
2022/11/15 05:46:24;;;;;;;24.98;7.60;;;;;;;16.33;46.81;93111.13;5085059;28;20066;-87
2022/11/15 05:48:50;;;;;;;30.10;11.02;;;;;;;16.35;46.50;93111.38;5081369;28;20047;-88
2022/11/15 05:51:15;;;;;;;26.33;9.02;;;;;;;16.29;46.28;93107.94;5067533;28;20181;-88
2022/11/15 05:53:41;;;;;;;25.38;10.10;;;;;;;16.31;46.22;93105.44;5109771;28;20039;-87
2022/11/15 05:56:06;;;;;;;48.13;12.57;;;;;;;16.32;46.70;93104.19;5088030;28;20028;-87
2022/11/15 05:58:32;;;;;;;35.72;13.40;;;;;;;16.26;46.40;93110.91;5068077;28;20071;-87
2022/11/15 06:00:59;;;;;;;39.03;11.65;;;;;;;16.26;46.23;93106.22;5073870;28;20068;-88
2022/11/15 06:03:24;;;;;;;41.47;13.38;;;;;;;16.23;45.85;93104.50;5061689;28;20036;-90
2022/11/15 06:05:50;;;;;;;31.83;13.52;;;;;;;16.21;46.39;93103.53;5064395;28;20036;-89
2022/11/15 06:08:15;;;;;;;32.28;14.77;;;;;;;16.22;46.29;93097.56;5054098;28;20036;-89
2022/11/15 06:10:41;;;;;;;41.47;16.35;;;;;;;16.20;46.52;93102.78;5073418;27;20093;-87
2022/11/15 06:13:06;;;;;;;35.08;14.73;;;;;;;16.20;46.66;93102.78;5088121;28;20507;-87
2022/11/15 06:15:33;;;;;;;33.25;15.77;;;;;;;16.18;46.51;93097.09;5060572;28;20111;-89
2022/11/15 06:17:59;;;;;;;43.15;18.17;;;;;;;16.16;46.54;93094.13;5094727;28;20035;-89
2022/11/15 06:20:27;;;;;;;49.50;18.80;;;;;;;16.20;46.30;93096.59;5093773;28;20032;-88
2022/11/15 06:22:59;;;;;;;42.50;19.58;;;;;;;16.19;46.53;93090.41;5078063;28;20047;-89
2022/11/15 06:25:25;;;;;;;46.10;17.45;;;;;;;16.20;46.49;93094.59;5074061;28;20055;-88
2022/11/15 06:27:53;;;;;;;54.38;24.00;;;;;;;16.22;46.81;93092.13;5071586;28;20574;-87
2022/11/15 06:30:19;;;;;;;55.45;25.35;;;;;;;16.23;46.63;93090.88;5069792;28;20058;-88
2022/11/15 06:32:44;;;;;;;50.67;23.00;;;;;;;16.22;46.49;93091.38;5072905;28;20039;-88
2022/11/15 06:35:10;;;;;;;57.03;25.88;;;;;;;16.23;46.45;93092.88;5072535;28;20032;-87
2022/11/15 06:37:35;;;;;;;53.88;26.73;;;;;;;16.21;46.73;93093.38;5081875;28;20082;-90
2022/11/15 06:40:01;;;;;;;69.50;28.35;;;;;;;16.21;46.16;93095.34;5090637;28;20456;-88
2022/11/15 06:42:27;;;;;;;70.05;31.92;;;;;;;16.20;46.41;93091.88;5053451;28;20561;-92
2022/11/15 06:44:53;;;;;;;56.60;31.90;;;;;;;16.26;46.93;93097.28;5051421;28;20051;-87
2022/11/15 06:47:18;;;;;;;77.57;41.28;;;;;;;16.28;47.61;93095.53;5058353;28;20040;-88
2022/11/15 06:49:43;;;;;;;109.80;61.60;;;;;;;16.26;46.32;93089.09;5064191;28;20040;-88
2022/11/15 06:52:09;;;;;;;90.57;48.20;;;;;;;16.24;46.39;93099.81;5051103;28;20406;-87
2022/11/15 06:54:34;;;;;;;143.98;59.90;;;;;;;16.25;46.50;93088.38;5064615;28;20058;-86
2022/11/15 06:57:00;;;;;;;124.05;54.15;;;;;;;16.23;45.95;93095.59;5049182;28;20041;-86
2022/11/15 06:59:25;;;;;;;122.35;60.78;;;;;;;16.25;46.70;93096.53;5062585;28;20164;-88
2022/11/15 07:01:51;;;;;;;139.65;65.50;;;;;;;16.29;46.37;93102.47;5045151;28;20646;-89
2022/11/15 07:04:19;;;;;;;142.52;67.68;;;;;;;16.28;46.72;93101.00;5039123;28;20109;-88
2022/11/15 07:06:48;;;;;;;154.10;64.40;;;;;;;16.31;46.94;93099.25;5028329;28;20072;-86
2022/11/15 07:09:13;;;;;;;140.63;61.35;;;;;;;16.30;46.71;93092.31;5030984;28;20048;-88
2022/11/15 07:11:39;;;;;;;133.52;61.88;;;;;;;16.40;48.05;93099.69;5064375;28;20056;-87
2022/11/15 07:14:04;;;;;;;117.75;49.50;;;;;;;16.45;47.38;93095.47;5061033;28;20036;-88
2022/11/15 07:16:30;;;;;;;118.57;63.70;;;;;;;16.51;47.16;93103.59;5068089;28;20589;-86
2022/11/15 07:18:55;;;;;;;111.80;53.13;;;;;;;16.56;46.94;93089.19;5066616;28;20047;-90
2022/11/15 07:21:21;;;;;;;117.00;55.72;;;;;;;16.58;46.55;93094.88;5074118;28;20847;-88
2022/11/15 07:23:46;;;;;;;90.13;46.22;;;;;;;16.61;47.49;93094.59;5078751;28;20028;-88
2022/11/15 07:26:12;;;;;;;140.75;61.65;;;;;;;16.59;46.16;93096.34;5069190;28;20045;-88
2022/11/15 07:28:37;;;;;;;90.35;47.83;;;;;;;16.57;46.64;93088.69;5076110;28;20515;-86
2022/11/15 07:31:06;;;;;;;92.40;51.05;;;;;;;16.54;46.09;93088.94;5074355;28;20393;-87
2022/11/15 07:33:32;;;;;;;95.22;49.42;;;;;;;16.53;46.15;93085.47;5087576;28;20043;-86
2022/11/15 07:36:01;;;;;;;83.68;44.67;;;;;;;16.54;46.68;93080.75;5091685;28;20212;-84
2022/11/15 07:38:31;;;;;;;85.45;43.70;;;;;;;16.54;46.77;93083.50;5102960;27;20036;-86
2022/11/15 07:40:58;;;;;;;79.00;44.72;;;;;;;16.53;46.75;93082.75;5063570;28;20040;-86
2022/11/15 07:43:28;;;;;;;97.35;44.45;;;;;;;16.51;46.51;93090.69;5067070;28;20036;-86
2022/11/15 07:45:55;;;;;;;93.10;46.60;;;;;;;16.52;46.67;93083.25;5079522;28;20044;-86
2022/11/15 07:48:22;;;;;;;85.20;45.45;;;;;;;16.53;47.54;93079.28;5077336;28;20064;-87
2022/11/15 07:50:48;;;;;;;95.90;50.10;;;;;;;16.53;46.61;93082.00;5082071;27;20503;-88
2022/11/15 07:53:19;;;;;;;86.53;48.50;;;;;;;16.53;46.74;93084.72;5059114;28;20036;-88
2022/11/15 07:55:48;;;;;;;101.20;52.47;;;;;;;16.52;46.47;93075.06;5082331;27;20118;-88
2022/11/15 07:58:17;;;;;;;102.90;49.90;;;;;;;16.50;46.72;93077.56;5080189;28;20040;-88
2022/11/15 08:00:44;;;;;;;99.18;42.92;;;;;;;16.51;47.65;93076.31;5091849;28;20119;-87
2022/11/15 08:03:12;;;;;;;101.15;48.33;;;;;;;16.51;46.61;93082.50;5080646;28;20051;-88
2022/11/15 08:05:40;;;;;;;82.90;41.35;;;;;;;16.55;47.10;93080.25;5082579;28;20136;-88
2022/11/15 08:08:06;;;;;;;86.70;42.10;;;;;;;16.56;47.02;93068.09;5065004;27;20848;-87
2022/11/15 08:10:32;;;;;;;86.05;39.38;;;;;;;16.60;46.80;93062.38;5091784;27;20036;-86
2022/11/15 08:13:06;;;;;;;78.97;41.20;;;;;;;16.59;46.39;93069.06;5066443;28;20053;-87
2022/11/15 08:15:32;;;;;;;80.15;39.35;;;;;;;16.57;47.92;93077.03;5052333;28;20040;-85
2022/11/15 08:18:00;;;;;;;89.80;39.90;;;;;;;16.60;46.76;93070.56;5079115;28;20050;-89
2022/11/15 08:20:29;;;;;;;85.70;38.15;;;;;;;16.58;46.65;93067.59;5053247;27;20050;-87
2022/11/15 08:22:59;;;;;;;109.57;43.15;;;;;;;16.61;47.10;93066.59;5100382;27;20055;-87
2022/11/15 08:25:28;;;;;;;148.88;61.67;;;;;;;16.62;48.22;93055.16;5062475;27;20127;-86
2022/11/15 08:27:59;;;;;;;138.05;59.83;;;;;;;16.61;46.69;93061.88;5086946;28;20057;-87
2022/11/15 08:30:25;;;;;;;154.13;65.07;;;;;;;16.60;46.72;93065.84;5076282;28;20542;-86
2022/11/15 08:32:52;;;;;;;168.15;65.05;;;;;;;16.61;46.37;93053.69;5061367;28;20731;-87
2022/11/15 08:35:24;;;;;;;143.18;52.15;;;;;;;16.61;47.80;93045.50;5066357;28;20460;-87
2022/11/15 08:37:55;;;;;;;123.75;51.75;;;;;;;16.63;47.58;93064.09;5083524;28;20048;-88
2022/11/15 08:40:20;;;;;;;182.57;69.72;;;;;;;16.62;47.22;93059.88;5081611;28;20833;-87
2022/11/15 08:42:47;;;;;;;187.77;70.03;;;;;;;16.64;46.94;93068.31;5073959;28;20044;-88
2022/11/15 08:45:13;;;;;;;149.70;54.30;;;;;;;16.64;47.38;93068.31;5086699;28;20059;-86
2022/11/15 08:47:40;;;;;;;163.32;63.22;;;;;;;16.65;46.85;93048.72;5084676;28;20514;-87
2022/11/15 08:50:07;;;;;;;160.43;63.83;;;;;;;16.63;47.13;93056.66;5076801;28;20036;-85
2022/11/15 08:52:33;;;;;;;144.63;54.47;;;;;;;16.65;47.04;93056.91;5063696;28;20406;-87
2022/11/15 08:54:59;;;;;;;160.05;62.83;;;;;;;16.65;48.19;93051.44;5086298;28;20044;-89
2022/11/15 08:57:29;;;;;;;131.70;56.00;;;;;;;16.65;47.89;93047.97;5087319;27;20048;-86
2022/11/15 09:00:01;;;;;;;146.80;58.53;;;;;;;16.65;47.62;93051.44;5054709;28;20481;-88
2022/11/15 09:02:28;;;;;;;190.15;62.95;;;;;;;16.67;46.86;93040.75;5079869;28;20105;-90
2022/11/15 09:05:06;;;;;;;589.42;103.93;;;;;;;16.67;47.02;93046.19;5061703;27;20126;-87
2022/11/15 09:07:32;;;;;;;319.33;68.10;;;;;;;16.63;46.90;93043.03;5075414;28;20095;-88
2022/11/15 09:10:02;;;;;;;176.98;55.05;;;;;;;16.63;47.13;93034.06;5072262;28;20036;-88
2022/11/15 09:12:40;;;;;;;124.25;48.28;;;;;;;16.64;47.21;93033.59;5082642;28;20133;-89
2022/11/15 09:15:06;;;;;;;175.23;50.00;;;;;;;16.65;47.16;93035.06;5064329;28;20048;-87
2022/11/15 09:17:33;;;;;;;155.73;50.97;;;;;;;16.66;46.76;93035.81;5076765;28;20036;-87
2022/11/15 09:19:59;;;;;;;139.18;47.55;;;;;;;16.65;47.22;93040.53;5076823;28;20044;-88
2022/11/15 09:22:25;;;;;;;128.60;50.42;;;;;;;16.69;47.14;93034.78;5060274;28;20047;-86
2022/11/15 09:24:51;;;;;;;118.72;52.45;;;;;;;16.69;47.04;93040.22;5082509;28;20517;-88
2022/11/15 09:27:17;;;;;;;159.15;67.32;;;;;;;16.65;47.21;93037.81;5094850;28;20040;-87
2022/11/15 09:29:43;;;;;;;149.65;64.25;;;;;;;16.66;47.05;93039.28;5088315;28;20036;-89
2022/11/15 09:32:09;;;;;;;178.82;66.25;;;;;;;16.70;47.01;93038.97;5087423;28;20048;-86
2022/11/15 09:34:36;;;;;;;201.15;71.15;;;;;;;16.68;47.15;93036.75;5065706;28;20387;-89
2022/11/15 09:37:02;;;;;;;160.45;64.45;;;;;;;16.68;46.75;93031.31;5060821;28;20072;-88
2022/11/15 09:39:27;;;;;;;171.27;62.13;;;;;;;16.68;47.08;93033.28;5084590;28;20038;-89
2022/11/15 09:42:05;;;;;;;154.52;60.03;;;;;;;16.67;47.11;93029.09;5082985;28;20028;-87
2022/11/15 09:44:37;;;;;;;148.98;56.63;;;;;;;16.67;47.17;93024.38;5090239;28;20035;-90
2022/11/15 09:47:39;;;;;;;142.75;59.25;;;;;;;16.66;47.10;93024.91;5096481;27;20065;-87
2022/11/15 09:50:08;;;;;;;;;;;;;;;16.68;47.06;93016.91;5107444;28;20040;-88
2022/11/15 09:52:34;;;;;;;157.90;61.03;;;;;;;16.70;47.00;93008.97;5091912;27;20033;-87
2022/11/15 09:55:00;;;;;;;134.93;57.45;;;;;;;16.69;47.20;93021.88;5080413;28;20035;-84
2022/11/15 09:57:39;;;;;;;142.27;54.08;;;;;;;16.68;47.40;93019.66;5088862;28;20043;-86
2022/11/15 10:00:08;;;;;;;138.35;52.88;;;;;;;16.71;46.90;93018.63;5070505;28;20118;-86
2022/11/15 10:02:49;;;;;;;130.75;55.00;;;;;;;16.68;47.11;93006.75;5087783;28;20040;-86
2022/11/15 10:05:18;;;;;;;122.82;48.67;;;;;;;16.70;47.24;93008.97;5095989;28;20446;-87
2022/11/15 10:08:03;;;;;;;132.88;56.90;;;;;;;16.70;47.37;93006.22;5086842;28;20039;-87
2022/11/15 10:10:41;;;;;;;154.35;60.53;;;;;;;16.71;47.13;92999.53;5084379;28;20044;-88
2022/11/15 10:13:13;;;;;;;119.85;54.40;;;;;;;16.72;47.06;92999.03;5071253;28;20042;-88
2022/11/15 10:15:39;;;;;;;134.70;55.45;;;;;;;16.71;47.23;92996.78;5073999;28;20036;-88
2022/11/15 10:18:15;;;;;;;152.18;57.53;;;;;;;16.72;46.96;92987.38;5087695;28;20075;-87
2022/11/15 10:20:46;;;;;;;156.73;58.90;;;;;;;16.73;46.96;92980.66;5077690;28;20040;-87
2022/11/15 10:23:14;;;;;;;122.28;51.35;;;;;;;16.70;47.10;92974.22;5108926;28;20490;-88
2022/11/15 10:25:39;;;;;;;120.85;51.03;;;;;;;16.72;47.29;92966.25;5075612;28;20050;-89
2022/11/15 10:28:24;;;;;;;122.82;53.58;;;;;;;16.71;47.10;92966.78;5094958;28;20035;-87
2022/11/15 10:31:04;;;;;;;130.30;58.00;;;;;;;16.72;47.36;92951.88;5093058;28;20050;-88
2022/11/15 10:33:34;;;;;;;132.35;56.90;;;;;;;16.73;47.00;92954.09;5096895;28;20055;-87
2022/11/15 10:36:08;;;;;;;152.27;65.00;;;;;;;16.72;47.09;92947.16;5070195;28;20068;-86
2022/11/15 10:38:50;;;;;;;157.38;64.40;;;;;;;16.71;47.08;92948.41;5094721;28;20059;-87
2022/11/15 10:41:31;;;;;;;154.38;61.50;;;;;;;16.74;47.23;92943.91;5086114;28;20043;-87
2022/11/15 10:44:21;;;;;;;140.40;61.88;;;;;;;16.71;47.40;92932.03;5090089;28;20039;-85
2022/11/15 10:47:12;;;;;;;144.85;58.55;;;;;;;16.73;47.07;92943.19;5099748;28;20050;-89
2022/11/15 10:49:37;;;;;;;;;;;;;;;16.72;47.01;92928.06;5084701;28;20050;-88
2022/11/15 10:52:11;;;;;;;93.93;43.97;;;;;;;16.71;46.80;92923.09;5097272;28;20867;-87
2022/11/15 10:54:45;;;;;;;124.63;50.75;;;;;;;16.70;46.63;92919.63;5103839;28;20284;-88
2022/11/15 10:57:14;;;;;;;68.75;29.85;;;;;;;16.69;45.54;92922.88;5061107;28;20047;-88
2022/11/15 10:59:39;;;;;;;65.97;30.23;;;;;;;16.65;46.21;92908.78;5071945;28;20040;-87
2022/11/15 11:02:30;;;;;;;88.95;29.90;;;;;;;16.65;46.21;92911.53;5054039;28;20038;-88
2022/11/15 11:04:56;;;;;;;75.15;32.05;;;;;;;16.68;46.23;92905.75;4997587;28;20052;-88
2022/11/15 11:07:24;;;;;;;80.85;27.90;;;;;;;16.65;46.13;92900.59;4995603;28;20535;-88
2022/11/15 11:09:57;;;;;;;66.63;23.58;;;;;;;16.66;46.00;92902.84;4960504;28;20053;-88
2022/11/15 11:12:28;;;;;;;49.42;20.42;;;;;;;16.63;45.78;92895.66;4987990;28;20061;-89
2022/11/15 11:14:53;;;;;;;60.90;20.45;;;;;;;16.63;45.86;92892.16;4984891;28;20444;-88
2022/11/15 11:17:35;;;;;;;48.15;23.38;;;;;;;16.64;46.07;92886.22;5005759;28;20452;-90
2022/11/15 11:20:11;;;;;;;55.50;23.92;;;;;;;16.61;46.10;92894.66;5018819;28;20037;-89
2022/11/15 11:22:52;;;;;;;47.33;21.20;;;;;;;16.58;45.96;92880.03;5003874;28;20523;-88
2022/11/15 11:25:29;;;;;;;38.63;20.88;;;;;;;16.56;45.64;92881.81;4994262;28;20052;-91
2022/11/15 11:28:28;;;;;;;42.88;21.55;;;;;;;16.54;46.05;92871.41;4997632;28;20064;-88
2022/11/15 11:31:20;;;;;;;33.13;15.60;;;;;;;16.54;45.53;92874.13;4971988;28;20041;-89
2022/11/15 11:34:13;;;;;;;27.05;14.43;;;;;;;16.49;45.84;92869.47;4971530;28;20034;-89
2022/11/15 11:36:41;;;;;;;23.83;13.18;;;;;;;16.47;45.57;92861.03;4998974;28;20385;-88
2022/11/15 11:39:15;;;;;;;24.02;11.85;;;;;;;16.46;45.72;92865.75;5022739;28;20034;-88
2022/11/15 11:41:47;;;;;;;24.42;13.00;;;;;;;16.46;45.87;92846.66;5041810;28;20284;-90